^^
Saratoga-Weather Station Historical Data
 
Daily Summary for July 19, 2024 Units:  Metric    English   Both
Daily Weekly Monthly Yearly
  Current: High: Low: Average:
Temperature: 29 °C 29 °C 24.3 °C 26 °C
Dew Point: 22.8 °C 23 °C 21.2 °C 22 °C
Humidity: 69.4% 84% 69.1% 79%
Wind Speed: 9km/h 10.4km/h 0km/h 3.6km/h
Wind Gust: 8.5km/h 12.9km/h - -
WindEast - - ENE
Pressure: 1016.6 hPa 1016.7 hPa 1015.8 hPa -
Precipitation: 0.0 mm      
 
 
Tabular Data for July 19, 2024
Time Temperature Dew Point Pressure Wind Wind Speed Wind Gust Humidity Rainfall Rate (Hourly) solar
00:04 28.1 °C 22.4 °C 1016.0 hPa South 4.4 km/h 6.4 km/h 71% 0.0 mm 0 W/m2
00:09 28 °C 22.2 °C 1016.1 hPa South 1.9 km/h 4.8 km/h 71% 0.0 mm 0 W/m2
00:14 28 °C 22.3 °C 1016.1 hPa South 1.3 km/h 1.6 km/h 71% 0.0 mm 0 W/m2
00:19 28.1 °C 22.2 °C 1016.1 hPa South 1.6 km/h 1.6 km/h 70.8% 0.0 mm 0 W/m2
00:24 28.1 °C 22.3 °C 1016.1 hPa South 0.3 km/h 1.6 km/h 71% 0.0 mm 0 W/m2
00:29 28.1 °C 22.3 °C 1016.2 hPa Calm     71% 0.0 mm 0 W/m2
00:34 28 °C 22.5 °C 1016.2 hPa South 1.4 km/h 0.3 km/h 71.9% 0.0 mm 0 W/m2
00:39 28.1 °C 22.3 °C 1016.2 hPa South 1.2 km/h 1.6 km/h 71.2% 0.0 mm 0 W/m2
00:44 28.1 °C 22.3 °C 1016.3 hPa South 1.6 km/h 1.6 km/h 71% 0.0 mm 0 W/m2
00:49 28.1 °C 22.1 °C 1016.3 hPa South 1.9 km/h 1.6 km/h 70% 0.0 mm 0 W/m2
00:54 28.1 °C 21.9 °C 1016.3 hPa South 1.4 km/h 3.2 km/h 69.1% 0.0 mm 0 W/m2
00:59 28 °C 22.2 °C 1016.3 hPa South 0.6 km/h 1.6 km/h 70.7% 0.0 mm 0 W/m2
01:03 28 °C 22 °C 1016.3 hPa South 1.5 km/h 1.6 km/h 70% 0.0 mm 0 W/m2
01:09 28 °C 22.2 °C 1016.4 hPa Calm   1.6 km/h 70.8% 0.0 mm 0 W/m2
01:14 27.9 °C 22.2 °C 1016.4 hPa Calm     71.2% 0.0 mm 0 W/m2
01:19 27.5 °C 22 °C 1016.4 hPa South 1.6 km/h 1.6 km/h 72% 0.0 mm 0 W/m2
01:24 27.3 °C 22.1 °C 1016.3 hPa South 0.8 km/h 1.6 km/h 73.4% 0.0 mm 0 W/m2
01:29 27 °C 22.1 °C 1016.3 hPa South 1.6 km/h 1.6 km/h 74.8% 0.0 mm 0 W/m2
01:34 26.9 °C 22.4 °C 1016.3 hPa SE 3.1 km/h 3.2 km/h 76.3% 0.0 mm 0 W/m2
01:39 26.7 °C 22.8 °C 1016.3 hPa East 3.4 km/h 4.8 km/h 79.3% 0.0 mm 0 W/m2
01:44 26.3 °C 23 °C 1016.3 hPa East 3.3 km/h 3.2 km/h 82% 0.0 mm 0 W/m2
01:49 26 °C 23 °C 1016.3 hPa East 2 km/h 3.2 km/h 83.4% 0.0 mm 0 W/m2
01:54 25.9 °C 22.7 °C 1016.3 hPa East 1.6 km/h 1.6 km/h 82.3% 0.0 mm 0 W/m2
01:59 26.3 °C 22.5 °C 1016.3 hPa East 0.8 km/h 1.6 km/h 79.8% 0.0 mm 0 W/m2
02:04 26.7 °C 22.5 °C 1016.2 hPa Calm   1.6 km/h 78% 0.0 mm 0 W/m2
02:09 26.8 °C 22.5 °C 1016.2 hPa East 0.5 km/h   77.3% 0.0 mm 0 W/m2
02:14 26.6 °C 22.4 °C 1016.1 hPa East 2.4 km/h 1.9 km/h 77.8% 0.0 mm 0 W/m2
02:19 26.3 °C 22.1 °C 1016.1 hPa East 4.3 km/h 3.2 km/h 78% 0.0 mm 0 W/m2
02:24 26.1 °C 22.2 °C 1016.1 hPa NNE 5.5 km/h 6.4 km/h 79% 0.0 mm 0 W/m2
02:29 25.9 °C 22.2 °C 1016.1 hPa North 4.2 km/h 6.4 km/h 79.9% 0.0 mm 0 W/m2
02:33 25.8 °C 22.1 °C 1016.1 hPa North 3.3 km/h 4.8 km/h 80.4% 0.0 mm 0 W/m2
02:39 25.7 °C 22.2 °C 1016.1 hPa North 3.4 km/h 3.2 km/h 81% 0.0 mm 0 W/m2
02:44 25.6 °C 22.1 °C 1016.1 hPa North 3.4 km/h 3.2 km/h 81% 0.0 mm 0 W/m2
02:49 25.6 °C 22.1 °C 1016.1 hPa North 1.6 km/h 3.2 km/h 81% 0.0 mm 0 W/m2
02:54 25.6 °C 22.1 °C 1016.0 hPa North 1.2 km/h 1.6 km/h 81% 0.0 mm 0 W/m2
02:59 25.6 °C 22.1 °C 1016.0 hPa North 2.2 km/h 1.9 km/h 81% 0.0 mm 0 W/m2
03:04 25.5 °C 22.1 °C 1016.0 hPa North 3.1 km/h 3.2 km/h 81.5% 0.0 mm 0 W/m2
03:09 25.4 °C 22.1 °C 1016.0 hPa North 2.1 km/h 3.2 km/h 82% 0.0 mm 0 W/m2
03:14 25.3 °C 22.1 °C 1015.9 hPa North 2.9 km/h 3.2 km/h 82.4% 0.0 mm 0 W/m2
03:19 25.2 °C 22.1 °C 1015.9 hPa North 2.5 km/h 3.2 km/h 83% 0.0 mm 0 W/m2
03:24 25.1 °C 22 °C 1015.9 hPa North 2.7 km/h 3.2 km/h 83% 0.0 mm 0 W/m2
03:29 25.1 °C 22 °C 1015.9 hPa North 1.9 km/h 3.2 km/h 83% 0.0 mm 0 W/m2
03:34 25.1 °C 21.9 °C 1015.9 hPa North 3.4 km/h 3.2 km/h 83% 0.0 mm 0 W/m2
03:39 25.1 °C 21.9 °C 1015.9 hPa North 2.8 km/h 3.2 km/h 83% 0.0 mm 0 W/m2
03:44 25.1 °C 22 °C 1015.9 hPa North 1.9 km/h 3.2 km/h 83% 0.0 mm 0 W/m2
03:49 25.1 °C 22 °C 1015.9 hPa North 2.2 km/h 1.6 km/h 83% 0.0 mm 0 W/m2
03:54 25.1 °C 21.9 °C 1015.9 hPa North 2.2 km/h 3.2 km/h 83% 0.0 mm 0 W/m2
03:58 25 °C 21.9 °C 1015.8 hPa North 2.8 km/h 3.2 km/h 83% 0.0 mm 0 W/m2
04:04 25.1 °C 21.8 °C 1015.8 hPa North 2.9 km/h 3.7 km/h 82% 0.0 mm 0 W/m2
04:09 25.1 °C 21.8 °C 1015.8 hPa North 1.9 km/h 3.2 km/h 82% 0.0 mm 0 W/m2
04:14 25.1 °C 21.8 °C 1015.8 hPa North 3.3 km/h 3.2 km/h 81.8% 0.0 mm 0 W/m2
04:19 25 °C 21.7 °C 1015.8 hPa North 2.4 km/h 3.2 km/h 81.9% 0.0 mm 0 W/m2
04:24 25 °C 21.7 °C 1015.9 hPa North 1.9 km/h 3.2 km/h 82% 0.0 mm 0 W/m2
04:29 25 °C 21.7 °C 1015.9 hPa North 1.6 km/h 1.6 km/h 82% 0.0 mm 0 W/m2
04:34 25 °C 21.5 °C 1015.9 hPa North 2.9 km/h 1.8 km/h 81.2% 0.0 mm 0 W/m2
04:39 25 °C 21.6 °C 1015.9 hPa North 1.9 km/h 3.2 km/h 81.7% 0.0 mm 0 W/m2
04:44 25 °C 21.7 °C 1015.9 hPa North 2.4 km/h 1.9 km/h 82% 0.0 mm 0 W/m2
04:49 24.9 °C 21.6 °C 1015.9 hPa North 3.4 km/h 3.2 km/h 82% 0.0 mm 0 W/m2
04:54 24.9 °C 21.6 °C 1016.0 hPa North 2.2 km/h 3.2 km/h 82.3% 0.0 mm 0 W/m2
04:59 24.8 °C 21.8 °C 1016.0 hPa North 1.5 km/h 1.6 km/h 83.4% 0.0 mm 0 W/m2
05:04 24.7 °C 21.8 °C 1016.0 hPa North 3 km/h 1.8 km/h 84% 0.0 mm 0 W/m2
05:09 24.6 °C 21.7 °C 1016.1 hPa North 2.2 km/h 3.2 km/h 84% 0.0 mm 0 W/m2
05:14 24.5 °C 21.7 °C 1016.1 hPa North 1.6 km/h 3.2 km/h 84% 0.0 mm 0 W/m2
05:19 24.5 °C 21.6 °C 1016.1 hPa North 2.8 km/h 1.9 km/h 84% 0.0 mm 0 W/m2
05:24 24.4 °C 21.5 °C 1016.0 hPa North 2.5 km/h 3.2 km/h 84% 0.0 mm 0 W/m2
05:29 24.4 °C 21.5 °C 1016.0 hPa North 2.5 km/h 3.2 km/h 83.8% 0.0 mm 0 W/m2
05:34 24.4 °C 21.4 °C 1016.1 hPa North 2.1 km/h 3.2 km/h 83% 0.0 mm 0 W/m2
05:39 24.4 °C 21.4 °C 1016.1 hPa North 3.4 km/h 3.2 km/h 83% 0.0 mm 0 W/m2
05:44 24.4 °C 21.4 °C 1016.1 hPa North 3.4 km/h 3.2 km/h 83% 0.0 mm 0 W/m2
05:49 24.4 °C 21.4 °C 1016.1 hPa North 3.1 km/h 3.2 km/h 83% 0.0 mm 0 W/m2
05:54 24.4 °C 21.3 °C 1016.1 hPa North 3 km/h 3.2 km/h 83% 0.0 mm 0 W/m2
05:58 24.3 °C 21.3 °C 1016.1 hPa North 2.5 km/h 3.2 km/h 83% 0.0 mm 5 W/m2
06:04 24.3 °C 21.2 °C 1016.1 hPa North 2.6 km/h 3.2 km/h 83% 0.0 mm 7 W/m2
06:09 24.3 °C 21.3 °C 1016.1 hPa North 3.4 km/h 3.2 km/h 83% 0.0 mm 11 W/m2
06:14 24.3 °C 21.3 °C 1016.1 hPa North 3.4 km/h 3.2 km/h 83% 0.0 mm 14 W/m2
06:19 24.4 °C 21.3 °C 1016.1 hPa North 3.6 km/h 3.2 km/h 83% 0.0 mm 16 W/m2
06:24 24.4 °C 21.3 °C 1016.2 hPa North 4.1 km/h 3.2 km/h 83% 0.0 mm 21 W/m2
06:29 24.4 °C 21.3 °C 1016.2 hPa North 3.5 km/h 4.8 km/h 83% 0.0 mm 26 W/m2
06:33 24.4 °C 21.4 °C 1016.3 hPa North 4.3 km/h 4.8 km/h 83.4% 0.0 mm 32 W/m2
06:39 24.3 °C 21.4 °C 1016.3 hPa North 4.6 km/h 4.8 km/h 84% 0.0 mm 40 W/m2
06:44 24.3 °C 21.4 °C 1016.2 hPa NNE 4.2 km/h 4.8 km/h 84% 0.0 mm 47 W/m2
06:49 24.3 °C 21.5 °C 1016.2 hPa NNE 3 km/h 4.8 km/h 84% 0.0 mm 54 W/m2
06:54 24.4 °C 21.5 °C 1016.2 hPa NNE 2.9 km/h 3.2 km/h 84% 0.0 mm 63 W/m2
06:59 24.4 °C 21.6 °C 1016.2 hPa NNE 3.3 km/h 3.2 km/h 84% 0.0 mm 74 W/m2
07:04 24.5 °C 21.6 °C 1016.2 hPa NE 3.4 km/h 3.2 km/h 84% 0.0 mm 84 W/m2
07:09 24.6 °C 21.7 °C 1016.2 hPa NE 3.9 km/h 3.2 km/h 84% 0.0 mm 90 W/m2
07:14 24.7 °C 21.7 °C 1016.2 hPa NE 5.6 km/h 4.8 km/h 83.7% 0.0 mm 98 W/m2
07:19 24.7 °C 21.6 °C 1016.2 hPa NE 7 km/h 6.4 km/h 83% 0.0 mm 116 W/m2
07:23 24.7 °C 21.6 °C 1016.3 hPa NE 5.5 km/h 8 km/h 83% 0.0 mm 127 W/m2
07:29 24.8 °C 21.6 °C 1016.3 hPa ENE 5.4 km/h 6.4 km/h 82% 0.0 mm 137 W/m2
07:34 25 °C 21.7 °C 1016.4 hPa ENE 5.4 km/h 6.4 km/h 82% 0.0 mm 144 W/m2
07:39 25 °C 21.8 °C 1016.5 hPa ENE 6 km/h 8 km/h 82% 0.0 mm 156 W/m2
07:44 25.2 °C 21.9 °C 1016.5 hPa ENE 3.3 km/h 8 km/h 82% 0.0 mm 171 W/m2
07:49 25.3 °C 22 °C 1016.6 hPa ENE 3.7 km/h 4.8 km/h 82% 0.0 mm 181 W/m2
07:54 25.4 °C 22.1 °C 1016.6 hPa ENE 4.4 km/h 4.8 km/h 82% 0.0 mm 190 W/m2
07:59 25.5 °C 22.2 °C 1016.6 hPa ENE 3.5 km/h 4.8 km/h 82% 0.0 mm 204 W/m2
08:04 25.7 °C 22.4 °C 1016.6 hPa ENE 4.8 km/h 4.8 km/h 81.8% 0.0 mm 213 W/m2
08:09 25.8 °C 22.4 °C 1016.6 hPa ENE 5.7 km/h 6.4 km/h 81.7% 0.0 mm 223 W/m2
08:13 25.8 °C 22.3 °C 1016.7 hPa East 5.3 km/h 6.4 km/h 81% 0.0 mm 232 W/m2
08:19 26 °C 22.5 °C 1016.7 hPa East 3.7 km/h 6.4 km/h 80.8% 0.0 mm 236 W/m2
08:24 26.2 °C 22.3 °C 1016.7 hPa ENE 7.2 km/h 6.6 km/h 79.5% 0.0 mm 234 W/m2
08:29 26.3 °C 22.4 °C 1016.7 hPa ENE 5.3 km/h 9.7 km/h 79.3% 0.0 mm 229 W/m2
08:34 26.5 °C 22.5 °C 1016.7 hPa ENE 5.5 km/h 6.4 km/h 78.8% 0.0 mm 227 W/m2
08:39 26.7 °C 22.5 °C 1016.7 hPa ENE 5.6 km/h 8 km/h 78% 0.0 mm 246 W/m2
08:44 26.8 °C 22.4 °C 1016.7 hPa ENE 8.5 km/h 9.7 km/h 77% 0.0 mm 276 W/m2
08:49 26.9 °C 22.5 °C 1016.7 hPa East 6.7 km/h 9.7 km/h 77% 0.0 mm 299 W/m2
08:54 27.1 °C 22.6 °C 1016.7 hPa East 5.2 km/h 8 km/h 76.7% 0.0 mm 320 W/m2
08:59 27.2 °C 22.6 °C 1016.7 hPa ENE 8.6 km/h 8 km/h 76% 0.0 mm 343 W/m2
09:03 27.2 °C 22.6 °C 1016.6 hPa East 6.1 km/h 12.9 km/h 76% 0.0 mm 369 W/m2
09:09 27.3 °C 22.6 °C 1016.6 hPa East 7.7 km/h 9.7 km/h 75.4% 0.0 mm 387 W/m2
09:14 27.6 °C 22.7 °C 1016.6 hPa ENE 5.9 km/h 9.7 km/h 75% 0.0 mm 401 W/m2
09:19 27.9 °C 22.9 °C 1016.6 hPa East 7.2 km/h 8 km/h 74.2% 0.0 mm 418 W/m2
09:24 27.9 °C 22.7 °C 1016.7 hPa ENE 7.3 km/h 9.7 km/h 73.3% 0.0 mm 427 W/m2
09:28 28 °C 22.8 °C 1016.7 hPa ENE 7.7 km/h 11.3 km/h 73.6% 0.0 mm 434 W/m2
09:34 28.1 °C 22.7 °C 1016.6 hPa East 9.2 km/h 12.9 km/h 72.7% 0.0 mm 454 W/m2
09:39 28.4 °C 22.9 °C 1016.6 hPa East 8.6 km/h 11.3 km/h 72% 0.0 mm 464 W/m2
09:44 28.5 °C 22.7 °C 1016.6 hPa East 9.9 km/h 11.3 km/h 71% 0.0 mm 478 W/m2
09:49 28.6 °C 22.7 °C 1016.6 hPa East 10.4 km/h 12.9 km/h 70.5% 0.0 mm 485 W/m2
09:54 28.8 °C 22.9 °C 1016.6 hPa ESE 8.4 km/h 11.3 km/h 70.4% 0.0 mm 494 W/m2
09:59 28.8 °C 22.7 °C 1016.6 hPa ESE 6.2 km/h 11.3 km/h 69.7% 0.0 mm 520 W/m2
10:03 29 °C 22.8 °C 1016.6 hPa East 9 km/h 8.5 km/h 69.4% 0.0 mm 524 W/m2
Lodi Weather
Compliments of Weather Underground - 1.75 mb